Thorco Attraction — V2BS1 — position and weather

sailwx.info

Track history (hours):
 
Tides and Currents Weather Stations Pressure Air Temp Water Temp Dewpoint Dewpoint Depression Visibility Wind Speed Wind Dir Waves Ship Positions

Thorco Attraction

Last reported at 2017-Jan-19 18:26 UTC. Time now 2017-Jan-22 01:47 UTC.
Position N 01°14' E 103°58'.

Length 132 m; draft 5 m.

Type: Ship. MMSI: 304908000.

Date/timePositionNaut miles runAvg speedWind from/ knotsBaromVisibWave heightAir tempDewpointWater temp
2017-Jan-19 18:26N 01°14' E 103°58'3 0.2
2017-Jan-19 01:33N 01°16' E 103°56'2 1.0
2017-Jan-18 23:32N 01°16' E 103°54'0 0.0
2017-Jan-18 22:20N 01°16' E 103°54'0 0.0
2017-Jan-18 20:26N 01°16' E 103°54'0 0.0
2017-Jan-18 18:32N 01°16' E 103°54'0 0.0
2017-Jan-18 17:23N 01°16' E 103°54'0 0.0
2017-Jan-18 16:26N 01°16' E 103°54'0 0.1
2017-Jan-18 15:29N 01°16' E 103°54'0 0.0
2017-Jan-18 14:29N 01°16' E 103°54'0 0.1
2017-Jan-18 13:23N 01°16' E 103°54'0 0.0
2017-Jan-18 12:32N 01°16' E 103°54'0 0.0
2017-Jan-18 11:23N 01°16' E 103°54'0 0.0
2017-Jan-18 09:32N 01°16' E 103°54'0 0.0
2017-Jan-18 08:20N 01°16' E 103°54'0 0.0
2017-Jan-18 05:14N 01°16' E 103°54'0 0.0
2017-Jan-18 03:05N 01°16' E 103°54'0 0.0
2017-Jan-18 02:29N 01°16' E 103°54'0 0.0
2017-Jan-18 01:32N 01°16' E 103°54'0 0.1
2017-Jan-18 00:29N 01°16' E 103°54'0 0.0
2017-Jan-17 23:11N 01°16' E 103°54'0 0.0
2017-Jan-17 22:29N 01°16' E 103°54'0 0.0
2017-Jan-17 21:23N 01°16' E 103°54'0 0.0
2017-Jan-17 20:29N 01°16' E 103°54'0 0.0
2017-Jan-17 19:29N 01°16' E 103°54'0 0.1
2017-Jan-17 18:20N 01°16' E 103°54'0 0.0
2017-Jan-17 17:32N 01°16' E 103°54'0 0.1
2017-Jan-17 16:29N 01°16' E 103°54'0 0.0
2017-Jan-17 15:29N 01°16' E 103°54'0 0.1
2017-Jan-17 14:32N 01°16' E 103°54'0 0.0
2017-Jan-17 09:23N 01°16' E 103°54'0 0.0
2017-Jan-17 08:14N 01°16' E 103°54'0 0.1
2017-Jan-17 07:32N 01°16' E 103°54'0 0.1
2017-Jan-17 06:08N 01°16' E 103°54'0 0.0
2017-Jan-17 04:11N 01°16' E 103°54'0 0.0
2017-Jan-17 03:17N 01°16' E 103°54'0 0.0
2017-Jan-17 02:14N 01°16' E 103°54'0 0.0
2017-Jan-17 01:29N 01°16' E 103°54'0 0.0
2017-Jan-17 00:23N 01°16' E 103°54'0 0.0
2017-Jan-16 23:32N 01°16' E 103°54'0 0.0
2017-Jan-16 22:32N 01°16' E 103°54'0 0.1
2017-Jan-16 21:31N 01°16' E 103°54'4 3.6
2017-Jan-16 20:22N 01°15' E 103°58'7 8.0
2017-Jan-16 19:31N 01°16' E 104°04'  
2017-Jan-10 18:33S 19°54' E 118°28'1414.3
2017-Jan-10 17:33S 20°07' E 118°33'  
Track history (hours):
 
Tides and Currents Weather Stations Pressure Air Temp Water Temp Dewpoint Dewpoint Depression Visibility Wind Speed Wind Dir Waves Ship Positions

Thorco Attraction

Last reported at 2017-Jan-19 18:26 UTC. Time now 2017-Jan-22 01:47 UTC.
Position N 01°14' E 103°58'.

Length 132 m; draft 5 m.

Type: Ship. MMSI: 304908000.

Date/timePositionNaut miles runAvg speedWind from/ knotsBaromVisibWave heightAir tempDewpointWater temp
2017-Jan-19 18:26N 01°14' E 103°58'3 0.2
2017-Jan-19 01:33N 01°16' E 103°56'2 1.0
2017-Jan-18 23:32N 01°16' E 103°54'0 0.0
2017-Jan-18 22:20N 01°16' E 103°54'0 0.0
2017-Jan-18 20:26N 01°16' E 103°54'0 0.0
2017-Jan-18 18:32N 01°16' E 103°54'0 0.0
2017-Jan-18 17:23N 01°16' E 103°54'0 0.0
2017-Jan-18 16:26N 01°16' E 103°54'0 0.1
2017-Jan-18 15:29N 01°16' E 103°54'0 0.0
2017-Jan-18 14:29N 01°16' E 103°54'0 0.1
2017-Jan-18 13:23N 01°16' E 103°54'0 0.0
2017-Jan-18 12:32N 01°16' E 103°54'0 0.0
2017-Jan-18 11:23N 01°16' E 103°54'0 0.0
2017-Jan-18 09:32N 01°16' E 103°54'0 0.0
2017-Jan-18 08:20N 01°16' E 103°54'0 0.0
2017-Jan-18 05:14N 01°16' E 103°54'0 0.0
2017-Jan-18 03:05N 01°16' E 103°54'0 0.0
2017-Jan-18 02:29N 01°16' E 103°54'0 0.0
2017-Jan-18 01:32N 01°16' E 103°54'0 0.1
2017-Jan-18 00:29N 01°16' E 103°54'0 0.0
2017-Jan-17 23:11N 01°16' E 103°54'0 0.0
2017-Jan-17 22:29N 01°16' E 103°54'0 0.0
2017-Jan-17 21:23N 01°16' E 103°54'0 0.0
2017-Jan-17 20:29N 01°16' E 103°54'0 0.0
2017-Jan-17 19:29N 01°16' E 103°54'0 0.1
2017-Jan-17 18:20N 01°16' E 103°54'0 0.0
2017-Jan-17 17:32N 01°16' E 103°54'0 0.1
2017-Jan-17 16:29N 01°16' E 103°54'0 0.0
2017-Jan-17 15:29N 01°16' E 103°54'0 0.1
2017-Jan-17 14:32N 01°16' E 103°54'0 0.0
2017-Jan-17 09:23N 01°16' E 103°54'0 0.0
2017-Jan-17 08:14N 01°16' E 103°54'0 0.1
2017-Jan-17 07:32N 01°16' E 103°54'0 0.1
2017-Jan-17 06:08N 01°16' E 103°54'0 0.0
2017-Jan-17 04:11N 01°16' E 103°54'0 0.0
2017-Jan-17 03:17N 01°16' E 103°54'0 0.0
2017-Jan-17 02:14N 01°16' E 103°54'0 0.0
2017-Jan-17 01:29N 01°16' E 103°54'0 0.0
2017-Jan-17 00:23N 01°16' E 103°54'0 0.0
2017-Jan-16 23:32N 01°16' E 103°54'0 0.0
2017-Jan-16 22:32N 01°16' E 103°54'0 0.1
2017-Jan-16 21:31N 01°16' E 103°54'4 3.6
2017-Jan-16 20:22N 01°15' E 103°58'7 8.0
2017-Jan-16 19:31N 01°16' E 104°04'  
2017-Jan-10 18:33S 19°54' E 118°28'1414.3
2017-Jan-10 17:33S 20°07' E 118°33'  

Dump ship's entire track history